Time;durP1;ratioP1;P1;durP2;ratioP2;P2;SDS_P1;SDS_P2;PMS_P1;PMS_P2;Temp;Humidity;BMP_temperature;BMP_pressure;BME280_temperature;BME280_humidity;BME280_pressure;Samples;Min_cycle;Max_cycle;Signal;HPM_P1;HPM_P2
2021/10/12 04:17:36;;;;;;;2.20;2.10;;;;;;;7.73;100.00;99345.44;4952817;29;20058;-76
2021/10/12 04:20:03;;;;;;;2.40;2.30;;;;;;;7.73;100.00;99335.13;4954282;28;20459;-77
2021/10/12 04:22:28;;;;;;;6.25;3.70;;;;;;;7.82;100.00;99335.13;4954151;28;20023;-76
2021/10/12 04:24:54;;;;;;;4.10;3.25;;;;;;;7.74;100.00;99336.88;4953757;28;20034;-76
2021/10/12 04:27:19;;;;;;;2.38;2.28;;;;;;;7.72;100.00;99338.56;4971074;28;20498;-76
2021/10/12 04:29:44;;;;;;;2.28;2.17;;;;;;;7.71;100.00;99336.84;4879856;28;20038;-76
2021/10/12 04:32:10;;;;;;;3.40;3.10;;;;;;;7.75;100.00;99333.41;4988931;28;20376;-71
2021/10/12 04:34:36;;;;;;;2.67;2.42;;;;;;;7.86;100.00;99336.00;4986069;28;20040;-71
2021/10/12 04:37:02;;;;;;;2.45;2.35;;;;;;;7.85;100.00;99335.16;4988100;28;20023;-71
2021/10/12 04:39:28;;;;;;;4.28;2.50;;;;;;;7.84;100.00;99328.28;4983628;28;20534;-71
2021/10/12 04:41:57;;;;;;;3.85;3.45;;;;;;;7.89;100.00;99331.72;4989129;28;20030;-71
2021/10/12 04:44:22;;;;;;;4.07;3.72;;;;;;;7.91;100.00;99327.41;4982844;28;20018;-71
2021/10/12 04:46:48;;;;;;;3.03;2.83;;;;;;;8.08;100.00;99321.44;4985449;28;20030;-71
2021/10/12 04:49:13;;;;;;;2.50;2.35;;;;;;;8.58;100.00;99320.59;4979652;28;20483;-71
2021/10/12 04:51:39;;;;;;;5.28;2.75;;;;;;;8.74;100.00;99314.53;4987832;28;20023;-71
2021/10/12 04:54:04;;;;;;;2.88;2.67;;;;;;;8.64;100.00;99323.16;4985215;28;20030;-71
2021/10/12 04:56:29;;;;;;;3.35;3.10;;;;;;;8.41;100.00;99326.66;4987216;28;20036;-70
2021/10/12 04:58:55;;;;;;;2.67;2.47;;;;;;;8.31;100.00;99319.69;4983595;28;20029;-69
2021/10/12 05:01:20;;;;;;;3.53;3.22;;;;;;;8.17;100.00;99314.56;4985102;28;20026;-70
2021/10/12 05:03:45;;;;;;;4.05;3.75;;;;;;;8.08;100.00;99326.59;4983497;28;20072;-70
2021/10/12 05:06:10;;;;;;;1.88;1.80;;;;;;;8.04;100.00;99315.41;4982295;28;20591;-72
2021/10/12 05:08:36;;;;;;;3.60;3.22;;;;;;;8.05;100.00;99322.28;4986457;28;20018;-72
2021/10/12 05:11:01;;;;;;;3.00;2.78;;;;;;;8.54;100.00;99317.16;4985094;28;20065;-71
2021/10/12 05:13:27;;;;;;;2.42;2.33;;;;;;;8.73;100.00;99312.81;4980415;28;20026;-71
2021/10/12 05:15:53;;;;;;;2.60;2.40;;;;;;;8.48;100.00;99323.19;4984751;28;20061;-71
2021/10/12 05:18:21;;;;;;;1.65;1.55;;;;;;;8.15;100.00;99310.25;4986973;28;20022;-72
2021/10/12 05:20:46;;;;;;;2.60;2.47;;;;;;;8.14;100.00;99318.84;4979908;28;20089;-71
2021/10/12 05:23:13;;;;;;;2.50;2.40;;;;;;;8.02;100.00;99314.53;4985391;28;20027;-71
2021/10/12 05:25:39;;;;;;;2.97;2.78;;;;;;;8.02;100.00;99311.94;4976054;28;20424;-72
2021/10/12 05:28:04;;;;;;;2.97;2.75;;;;;;;7.98;100.00;99311.09;4983515;28;20166;-72
2021/10/12 05:30:30;;;;;;;3.47;2.92;;;;;;;8.07;100.00;99312.81;4979467;28;20029;-71
2021/10/12 05:32:55;;;;;;;4.07;3.72;;;;;;;8.05;100.00;99313.69;4981975;28;20031;-71
2021/10/12 05:35:20;;;;;;;3.35;3.20;;;;;;;8.03;100.00;99307.69;4983614;28;20161;-72
2021/10/12 05:37:46;;;;;;;3.47;3.22;;;;;;;8.03;100.00;99307.69;4988990;28;20019;-71
2021/10/12 05:40:11;;;;;;;2.17;2.08;;;;;;;7.98;100.00;99308.53;4987109;28;20035;-71
2021/10/12 05:42:37;;;;;;;2.17;2.08;;;;;;;8.08;100.00;99306.81;4988330;28;20034;-72
2021/10/12 05:45:03;;;;;;;2.17;2.00;;;;;;;8.20;100.00;99309.38;4985985;28;20113;-72
2021/10/12 05:47:28;;;;;;;3.10;2.28;;;;;;;8.31;100.00;99304.22;4984341;28;20109;-72
2021/10/12 05:49:53;;;;;;;3.90;3.58;;;;;;;8.42;100.00;99299.94;4983792;28;20042;-71
2021/10/12 05:52:21;;;;;;;3.75;2.47;;;;;;;8.24;100.00;99297.34;4982886;28;20491;-72
2021/10/12 05:54:52;;;;;;;3.45;2.05;;;;;;;8.24;100.00;99303.38;4987085;28;20022;-71
2021/10/12 05:57:34;;;;;;;5.70;3.08;;;;;;;8.11;100.00;99296.47;4981008;28;20019;-72
2021/10/12 05:59:59;;;;;;;2.53;2.17;;;;;;;8.22;100.00;99299.06;4989570;28;20026;-72
2021/10/12 06:02:25;;;;;;;2.70;2.50;;;;;;;8.53;100.00;99305.09;4988464;28;20034;-71
2021/10/12 06:04:50;;;;;;;4.78;4.47;;;;;;;8.50;100.00;99300.78;4988370;28;20731;-71
2021/10/12 06:07:15;;;;;;;2.15;2.05;;;;;;;8.29;100.00;99303.38;4986140;28;20046;-72
2021/10/12 06:09:40;;;;;;;8.18;3.47;;;;;;;8.61;100.00;99302.53;4990161;28;20027;-72
2021/10/12 06:12:06;;;;;;;2.72;2.42;;;;;;;8.65;100.00;99299.91;4985993;28;20109;-72
2021/10/12 06:14:31;;;;;;;2.97;2.70;;;;;;;8.77;100.00;99299.03;4988357;28;20418;-71
2021/10/12 06:16:56;;;;;;;3.55;3.22;;;;;;;8.46;100.00;99304.25;4986631;28;20046;-71
2021/10/12 06:19:22;;;;;;;2.00;1.92;;;;;;;8.48;100.00;99301.66;4986902;28;20030;-71
2021/10/12 06:21:47;;;;;;;1.48;1.45;;;;;;;8.35;100.00;99300.78;4984109;28;20026;-71
2021/10/12 06:24:12;;;;;;;1.65;1.65;;;;;;;8.37;100.00;99303.41;4984234;28;20014;-71
2021/10/12 06:26:39;;;;;;;1.27;1.27;;;;;;;8.73;100.00;99290.41;4986636;28;20057;-71
2021/10/12 06:29:04;;;;;;;1.85;1.83;;;;;;;8.86;100.00;99299.00;4981548;28;20026;-71
2021/10/12 06:31:31;;;;;;;3.97;3.65;;;;;;;8.97;100.00;99297.25;4985132;28;20022;-71
2021/10/12 06:33:56;;;;;;;2.90;2.70;;;;;;;8.83;100.00;99309.34;4983364;28;20391;-72
2021/10/12 06:36:21;;;;;;;3.17;2.92;;;;;;;8.53;100.00;99312.00;4990915;28;20026;-72
2021/10/12 06:38:47;;;;;;;4.75;3.25;;;;;;;8.50;100.00;99310.25;4983142;28;20026;-72
2021/10/12 06:41:12;;;;;;;3.25;2.95;;;;;;;8.90;100.00;99303.31;4990735;28;20027;-72
2021/10/12 06:43:37;;;;;;;3.50;3.17;;;;;;;9.02;100.00;99300.66;4981517;28;20021;-72
2021/10/12 06:46:03;;;;;;;3.45;2.53;;;;;;;8.93;100.00;99299.84;4985005;28;20081;-71
2021/10/12 06:48:28;;;;;;;2.75;2.58;;;;;;;8.98;100.00;99304.13;4983578;28;20014;-72
2021/10/12 06:50:53;;;;;;;2.25;2.05;;;;;;;8.83;100.00;99306.75;4985884;28;20286;-72
2021/10/12 06:53:19;;;;;;;2.58;2.25;;;;;;;8.54;100.00;99309.41;4980748;28;20378;-72
2021/10/12 06:55:44;;;;;;;2.28;2.15;;;;;;;8.57;100.00;99305.97;4984919;28;20048;-72
2021/10/12 06:58:10;;;;;;;2.63;2.42;;;;;;;8.60;100.00;99311.09;4991732;28;20494;-72
2021/10/12 07:00:36;;;;;;;3.75;3.42;;;;;;;8.68;100.00;99301.63;4984358;28;20036;-72
2021/10/12 07:03:01;;;;;;;1.02;1.02;;;;;;;8.57;100.00;99308.53;4982383;28;20030;-72
2021/10/12 07:05:26;;;;;;;2.53;2.33;;;;;;;8.46;100.00;99309.41;4985969;28;20476;-72
2021/10/12 07:07:51;;;;;;;3.22;1.83;;;;;;;8.58;100.00;99302.50;4984037;28;20018;-72
2021/10/12 07:10:17;;;;;;;2.03;1.92;;;;;;;8.66;100.00;99300.78;4985908;28;20023;-71
2021/10/12 07:12:43;;;;;;;2.67;2.50;;;;;;;8.68;100.00;99305.06;4992687;28;20468;-72
2021/10/12 07:15:09;;;;;;;2.75;2.53;;;;;;;8.78;100.00;99300.75;4982384;28;20511;-71
2021/10/12 07:17:35;;;;;;;1.30;1.30;;;;;;;9.02;100.00;99295.50;4988013;28;20057;-71
2021/10/12 07:20:00;;;;;;;3.80;3.25;;;;;;;8.91;100.00;99292.09;4980362;28;20054;-72
2021/10/12 07:22:26;;;;;;;3.75;3.38;;;;;;;8.98;100.00;99293.78;4988903;28;20030;-72
2021/10/12 07:24:52;;;;;;;4.78;2.38;;;;;;;9.03;100.00;99296.34;4982944;28;20027;-72
2021/10/12 07:27:18;;;;;;;1.92;1.83;;;;;;;8.91;100.00;99294.69;4986758;28;20023;-72
2021/10/12 07:29:45;;;;;;;2.97;2.13;;;;;;;8.89;100.00;99298.97;4976429;28;20022;-72
2021/10/12 07:32:11;;;;;;;1.38;1.38;;;;;;;8.85;100.00;99297.28;4987471;28;20110;-71
2021/10/12 07:34:36;;;;;;;5.35;2.30;;;;;;;9.06;100.00;99295.50;4981538;28;20142;-71
2021/10/12 07:37:02;;;;;;;2.17;2.08;;;;;;;9.11;100.00;99288.59;4984045;28;20113;-72
2021/10/12 07:39:27;;;;;;;1.67;1.58;;;;;;;9.20;100.00;99298.91;4983852;28;20165;-71
2021/10/12 07:41:52;;;;;;;3.25;3.05;;;;;;;9.09;100.00;99295.47;4986187;28;20142;-72
2021/10/12 07:44:17;;;;;;;1.50;1.40;;;;;;;9.18;100.00;99295.44;4986843;28;20484;-72
2021/10/12 07:46:43;;;;;;;2.33;2.22;;;;;;;9.16;100.00;99299.78;4982344;28;20029;-72
2021/10/12 07:49:08;;;;;;;3.33;3.03;;;;;;;9.33;100.00;99297.97;4983233;28;20035;-71
2021/10/12 07:51:33;;;;;;;2.65;2.55;;;;;;;9.25;100.00;99302.31;4984082;28;20020;-71
2021/10/12 07:54:01;;;;;;;1.60;1.40;;;;;;;9.31;100.00;99302.28;4983079;28;20101;-72
2021/10/12 07:56:36;;;;;;;2.90;2.70;;;;;;;9.40;100.00;99294.50;4979020;28;20030;-71
2021/10/12 07:59:06;;;;;;;3.13;2.80;;;;;;;9.33;100.00;99294.50;4987791;28;20097;-71
2021/10/12 08:01:33;;;;;;;2.38;2.05;;;;;;;9.34;100.00;99294.53;4982624;28;20050;-71
2021/10/12 08:04:02;;;;;;;3.00;2.80;;;;;;;9.55;100.00;99295.28;4985974;28;20105;-72
2021/10/12 08:06:27;;;;;;;1.90;1.80;;;;;;;9.39;100.00;99297.94;4990452;28;20073;-72
2021/10/12 08:08:53;;;;;;;2.80;2.38;;;;;;;9.53;100.00;99298.75;4987234;28;20022;-72
2021/10/12 08:11:23;;;;;;;1.90;1.77;;;;;;;9.59;100.00;99294.41;4985880;28;20030;-72
2021/10/12 08:13:52;;;;;;;1.85;1.75;;;;;;;9.50;100.00;99295.28;4983143;28;20522;-72
2021/10/12 08:16:20;;;;;;;1.65;1.27;;;;;;;9.77;100.00;99289.13;4980881;28;20031;-72
2021/10/12 08:18:46;;;;;;;1.65;1.55;;;;;;;9.91;100.00;99289.00;4981705;28;20021;-72
2021/10/12 08:21:12;;;;;;;2.47;2.28;;;;;;;9.90;100.00;99290.72;4981722;28;20035;-72
2021/10/12 08:23:37;;;;;;;4.15;2.67;;;;;;;10.02;100.00;99288.06;4981402;28;20546;-72
2021/10/12 08:26:02;;;;;;;2.30;2.20;;;;;;;10.04;100.00;99283.72;4980296;28;20484;-71
2021/10/12 08:28:28;;;;;;;1.70;1.60;;;;;;;10.06;99.22;99283.72;4980372;28;20022;-72
2021/10/12 08:30:53;;;;;;;2.17;2.08;;;;;;;10.12;98.83;99282.81;4986277;28;20022;-72
2021/10/12 08:33:18;;;;;;;6.20;3.47;;;;;;;10.31;99.05;99274.06;4985081;28;20018;-72
2021/10/12 08:35:44;;;;;;;1.52;1.42;;;;;;;10.28;98.82;99274.06;4983238;28;20096;-72
2021/10/12 08:38:10;;;;;;;1.98;1.88;;;;;;;10.23;98.49;99268.03;4983284;28;20113;-72
2021/10/12 08:40:35;;;;;;;2.00;1.95;;;;;;;10.24;97.68;99274.97;4982104;28;20037;-71
2021/10/12 08:43:01;;;;;;;1.58;1.50;;;;;;;10.35;98.78;99260.22;4982114;28;20030;-71
2021/10/12 08:45:26;;;;;;;3.35;2.17;;;;;;;10.49;98.04;99260.94;4987637;28;20037;-72
2021/10/12 08:47:52;;;;;;;3.03;2.83;;;;;;;10.25;97.41;99262.03;4975078;28;20123;-71
2021/10/12 08:50:21;;;;;;;1.25;1.23;;;;;;;10.15;98.11;99262.06;4984842;28;20054;-72
2021/10/12 08:52:47;;;;;;;1.30;1.30;;;;;;;10.20;97.75;99257.69;4980251;28;20022;-72
2021/10/12 08:55:14;;;;;;;0.95;0.95;;;;;;;10.18;98.22;99262.03;4988429;28;20053;-72
2021/10/12 08:57:44;;;;;;;6.20;2.35;;;;;;;10.15;98.37;99262.91;4990035;28;20029;-72
2021/10/12 09:00:12;;;;;;;1.98;1.88;;;;;;;10.03;98.81;99263.03;4985371;28;20512;-71
2021/10/12 09:02:56;;;;;;;2.25;1.83;;;;;;;10.03;100.00;99253.53;4984426;28;20037;-72
2021/10/12 09:05:25;;;;;;;1.38;1.25;;;;;;;10.00;98.29;99245.78;4982077;28;20101;-72
2021/10/12 09:07:51;;;;;;;3.97;2.23;;;;;;;10.14;97.58;99248.25;4983334;28;20026;-72
2021/10/12 09:10:22;;;;;;;0.90;0.90;;;;;;;10.29;98.11;99245.56;4981124;28;20339;-72
2021/10/12 09:12:49;;;;;;;5.03;1.33;;;;;;;10.47;97.58;99249.72;4987452;28;20420;-72
2021/10/12 09:15:16;;;;;;;0.93;0.93;;;;;;;10.78;95.46;99236.41;4984782;28;20058;-72
2021/10/12 09:17:42;;;;;;;2.30;1.45;;;;;;;11.01;94.31;99237.00;4988915;28;20057;-72
2021/10/12 09:20:11;;;;;;;3.80;3.10;;;;;;;11.06;91.20;99240.41;4982003;28;20035;-72
2021/10/12 09:22:40;;;;;;;1.67;1.58;;;;;;;10.89;91.78;99231.13;4987316;28;20454;-72
2021/10/12 09:25:13;;;;;;;0.95;0.88;;;;;;;10.96;92.06;99233.59;4980626;28;20031;-71
2021/10/12 09:27:56;;;;;;;0.70;0.70;;;;;;;11.18;91.45;99229.03;4985758;28;20031;-71
2021/10/12 09:30:33;;;;;;;1.27;1.23;;;;;;;11.39;89.91;99222.69;4986409;28;20101;-71
2021/10/12 09:33:08;;;;;;;1.35;1.25;;;;;;;11.86;87.96;99222.88;4988837;28;20026;-71
2021/10/12 09:35:35;;;;;;;1.58;1.38;;;;;;;12.03;86.41;99221.72;4988984;28;20546;-71
2021/10/12 09:38:07;;;;;;;1.13;1.13;;;;;;;11.91;85.22;99221.94;4985598;28;20223;-71
2021/10/12 09:40:38;;;;;;;1.60;1.58;;;;;;;11.92;85.15;99212.41;4989818;28;20097;-71
2021/10/12 09:43:05;;;;;;;1.48;1.38;;;;;;;12.00;86.50;99211.38;4983968;28;20480;-71
2021/10/12 09:45:41;;;;;;;0.50;0.50;;;;;;;12.18;85.41;99205.00;4989794;28;20082;-72
2021/10/12 09:48:34;;;;;;;1.25;1.20;;;;;;;11.94;85.37;99205.41;4985024;28;20030;-71
2021/10/12 09:51:10;;;;;;;0.75;0.75;;;;;;;12.34;84.83;99197.81;4982251;28;20023;-71
2021/10/12 09:53:35;;;;;;;1.00;1.00;;;;;;;12.22;84.43;99190.22;4983359;28;20173;-71
2021/10/12 09:56:01;;;;;;;2.22;2.10;;;;;;;12.71;85.52;99186.69;4984678;28;20062;-71
2021/10/12 09:58:30;;;;;;;5.20;1.65;;;;;;;13.21;79.29;99179.59;4992511;28;20022;-71
2021/10/12 10:00:57;;;;;;;1.45;1.23;;;;;;;13.50;76.07;99173.75;4982612;28;20109;-71
2021/10/12 10:03:23;;;;;;;1.20;1.15;;;;;;;13.08;77.46;99177.25;4990023;28;20038;-71
2021/10/12 10:05:51;;;;;;;1.42;1.33;;;;;;;12.44;78.93;99173.38;4980797;28;20018;-71
2021/10/12 10:08:17;;;;;;;0.80;0.80;;;;;;;11.69;82.95;99185.03;4990903;28;20476;-71
2021/10/12 10:10:43;;;;;;;1.38;1.30;;;;;;;10.98;85.57;99180.03;4984062;28;20026;-71
2021/10/12 10:13:09;;;;;;;3.53;1.75;;;;;;;10.82;88.82;99173.28;4987110;28;20487;-71
2021/10/12 10:15:35;;;;;;;0.98;0.98;;;;;;;10.44;90.40;99178.94;4984473;28;20031;-71
2021/10/12 10:18:00;;;;;;;0.93;0.93;;;;;;;10.36;91.35;99168.66;4984264;28;20019;-71
2021/10/12 10:20:27;;;;;;;0.75;0.75;;;;;;;10.28;93.38;99180.84;4987813;28;20176;-71
2021/10/12 10:22:56;;;;;;;4.13;1.52;;;;;;;10.30;96.60;99181.69;4989400;28;20727;-72
2021/10/12 10:25:34;;;;;;;0.57;0.57;;;;;;;10.17;96.79;99187.81;4986178;28;20029;-70
2021/10/12 10:28:19;;;;;;;0.82;0.82;;;;;;;10.17;98.02;99182.66;4986479;28;20030;-70
2021/10/12 10:30:58;;;;;;;3.97;2.33;;;;;;;9.97;98.27;99175.94;4986418;28;20380;-70
2021/10/12 10:33:32;;;;;;;1.02;0.95;;;;;;;10.39;95.67;99168.63;4987496;28;20052;-71
2021/10/12 10:36:03;;;;;;;2.72;1.63;;;;;;;10.70;95.09;99161.38;4988833;28;20034;-70
2021/10/12 10:38:42;;;;;;;1.60;1.27;;;;;;;11.19;92.96;99154.66;4983214;28;20023;-71
2021/10/12 10:41:10;;;;;;;1.67;1.58;;;;;;;11.39;93.06;99155.22;4987268;28;20033;-71
2021/10/12 10:44:00;;;;;;;1.35;1.30;;;;;;;11.63;89.81;99145.34;4981965;28;20498;-71
2021/10/12 10:46:47;;;;;;;0.57;0.57;;;;;;;12.27;89.18;99142.47;4980425;28;20081;-71
2021/10/12 10:49:23;;;;;;;1.15;1.13;;;;;;;12.81;87.56;99138.81;4987802;28;20433;-72
2021/10/12 10:52:01;;;;;;;0.40;0.40;;;;;;;12.70;82.78;99135.59;4982899;28;20178;-71
2021/10/12 10:54:36;;;;;;;1.42;1.05;;;;;;;12.45;85.20;99130.88;4983705;28;20479;-71
2021/10/12 10:57:15;;;;;;;0.98;0.88;;;;;;;12.18;85.55;99127.06;4989395;28;20042;-71
2021/10/12 10:59:40;;;;;;;0.90;0.90;;;;;;;11.94;84.84;99131.00;4985240;28;20547;-71
2021/10/12 11:02:33;;;;;;;0.98;0.88;;;;;;;11.86;86.37;99138.06;4985254;28;20362;-70
2021/10/12 11:04:58;;;;;;;2.90;2.70;;;;;;;12.01;87.07;99126.53;4981380;28;20027;-71
2021/10/12 11:07:26;;;;;;;0.60;0.60;;;;;;;12.02;85.22;99123.91;4984803;28;20018;-71
2021/10/12 11:09:52;;;;;;;0.88;0.88;;;;;;;11.64;85.44;99121.09;4982015;28;20018;-71
2021/10/12 11:12:20;;;;;;;0.40;0.40;;;;;;;11.83;86.32;99125.13;4986349;28;20054;-71
2021/10/12 11:14:47;;;;;;;0.65;0.65;;;;;;;11.84;85.96;99119.03;4984734;28;20018;-71
2021/10/12 11:17:12;;;;;;;2.60;0.80;;;;;;;11.73;87.91;99107.97;4980712;28;20257;-71
2021/10/12 11:19:58;;;;;;;1.30;1.30;;;;;;;11.24;89.14;99114.81;4990241;28;20027;-71
2021/10/12 11:22:24;;;;;;;1.17;1.02;;;;;;;11.34;89.07;99110.34;4984063;28;20026;-70
2021/10/12 11:24:50;;;;;;;0.68;0.68;;;;;;;11.16;89.64;99105.41;4986157;28;20027;-71
2021/10/12 11:27:16;;;;;;;1.85;1.75;;;;;;;11.22;90.32;99110.53;4982444;28;20542;-71
2021/10/12 11:29:42;;;;;;;0.85;0.70;;;;;;;11.22;90.98;99105.34;4985508;28;20033;-71
2021/10/12 11:32:07;;;;;;;0.73;0.73;;;;;;;11.29;90.29;99102.63;4979449;28;20480;-71
2021/10/12 11:34:33;;;;;;;0.85;0.85;;;;;;;10.95;92.08;99099.69;4984804;28;20027;-71
2021/10/12 11:37:11;;;;;;;4.13;1.30;;;;;;;10.93;93.05;99098.84;4982107;28;20076;-71
2021/10/12 11:39:37;;;;;;;1.17;1.17;;;;;;;11.05;92.07;99096.06;4979919;28;20035;-70
2021/10/12 11:42:05;;;;;;;2.05;1.95;;;;;;;11.16;89.85;99087.25;4983702;28;20178;-70
2021/10/12 11:44:31;;;;;;;3.15;2.85;;;;;;;11.17;92.08;99081.19;4986299;28;20126;-70
2021/10/12 11:47:02;;;;;;;2.00;1.90;;;;;;;11.43;90.84;99068.69;4988891;28;20152;-70
2021/10/12 11:49:33;;;;;;;0.80;0.80;;;;;;;11.87;87.49;99066.22;4980790;28;20387;-70
2021/10/12 11:52:07;;;;;;;1.02;1.02;;;;;;;12.42;86.94;99063.38;4986401;28;20026;-71
2021/10/12 11:54:33;;;;;;;1.02;1.02;;;;;;;12.77;82.14;99059.19;4977806;28;20076;-71
2021/10/12 11:56:58;;;;;;;0.90;0.90;;;;;;;12.90;82.80;99058.00;4985088;28;20050;-70
2021/10/12 11:59:25;;;;;;;3.40;1.17;;;;;;;12.87;81.77;99058.06;4981558;28;20026;-70
2021/10/12 12:01:52;;;;;;;0.63;0.63;;;;;;;13.09;81.69;99041.06;4984075;28;20023;-71
2021/10/12 12:04:37;;;;;;;0.60;0.60;;;;;;;13.36;79.22;99055.19;4978500;28;20117;-70
2021/10/12 12:07:07;;;;;;;1.30;1.20;;;;;;;13.07;78.36;99042.84;4984780;28;20029;-71
2021/10/12 12:09:36;;;;;;;2.63;1.02;;;;;;;13.07;79.80;99032.44;4984772;28;20030;-70
2021/10/12 12:12:05;;;;;;;0.68;0.68;;;;;;;12.90;79.36;99026.78;4980778;28;20031;-70
2021/10/12 12:14:30;;;;;;;0.70;0.70;;;;;;;13.15;79.15;99019.28;4989976;28;20026;-71
2021/10/12 12:17:19;;;;;;;0.80;0.80;;;;;;;12.61;78.78;99020.50;4982682;28;20027;-71
2021/10/12 12:19:48;;;;;;;0.30;0.30;;;;;;;12.70;77.15;99019.44;4985022;28;20408;-68
2021/10/12 12:22:22;;;;;;;4.60;1.63;;;;;;;12.86;77.23;99012.13;4983797;28;20034;-68
2021/10/12 12:24:58;;;;;;;0.68;0.68;;;;;;;12.58;77.58;99012.78;4985611;28;20023;-67
2021/10/12 12:27:25;;;;;;;0.80;0.80;;;;;;;12.37;76.02;99013.25;4977318;28;20026;-68
2021/10/12 12:30:00;;;;;;;0.68;0.68;;;;;;;12.71;75.43;99012.50;4979712;28;20030;-68
2021/10/12 12:32:25;;;;;;;0.35;0.35;;;;;;;12.52;76.16;99007.72;4984892;28;20553;-67
2021/10/12 12:35:08;;;;;;;0.50;0.50;;;;;;;12.97;77.42;98998.91;4979849;28;20109;-68
2021/10/12 12:37:35;;;;;;;1.73;1.50;;;;;;;12.81;74.96;99003.59;4983711;28;20022;-68
2021/10/12 12:40:00;;;;;;;0.50;0.50;;;;;;;12.96;77.21;99002.38;4983316;28;20029;-68
2021/10/12 12:42:38;;;;;;;0.50;0.50;;;;;;;12.71;75.52;98996.91;4989771;28;20487;-68
2021/10/12 12:45:16;;;;;;;0.68;0.68;;;;;;;12.64;78.28;98996.19;4981369;28;20025;-68
2021/10/12 12:47:55;;;;;;;1.05;1.05;;;;;;;12.33;76.43;98990.84;4984374;28;20169;-67
2021/10/12 12:50:24;;;;;;;0.95;0.95;;;;;;;11.99;78.36;98986.34;4982815;28;20038;-68
2021/10/12 12:52:49;;;;;;;0.30;0.30;;;;;;;12.08;77.76;98990.47;4981367;28;20538;-68
2021/10/12 12:55:38;;;;;;;0.40;0.40;;;;;;;12.02;78.52;98986.25;4983642;28;20109;-67
2021/10/12 12:58:04;;;;;;;0.40;0.40;;;;;;;12.16;80.12;98980.78;4981955;28;20625;-67
2021/10/12 13:00:30;;;;;;;0.95;0.95;;;;;;;11.89;78.80;98984.78;4989735;28;20037;-68
2021/10/12 13:02:57;;;;;;;0.32;0.32;;;;;;;11.86;78.13;98979.69;4977037;28;20461;-68
2021/10/12 13:05:23;;;;;;;0.50;0.50;;;;;;;11.70;77.55;98978.22;4990992;28;20375;-67
2021/10/12 13:07:49;;;;;;;0.30;0.30;;;;;;;11.66;77.81;98982.63;4980278;28;20023;-68
2021/10/12 13:10:16;;;;;;;1.02;0.88;;;;;;;11.51;78.39;98978.59;4985398;28;20082;-68
2021/10/12 13:12:43;;;;;;;1.35;1.35;;;;;;;11.74;78.21;98985.06;4980044;28;20041;-68
2021/10/12 13:15:09;;;;;;;0.55;0.55;;;;;;;11.66;78.03;98976.59;4984420;28;20038;-67
2021/10/12 13:17:34;;;;;;;6.40;0.98;;;;;;;11.76;76.52;98975.53;4984372;28;20023;-67
2021/10/12 13:19:59;;;;;;;0.45;0.45;;;;;;;11.70;76.64;98970.44;4985535;28;20479;-68
2021/10/12 13:22:24;;;;;;;0.30;0.30;;;;;;;11.74;77.16;98969.50;4982206;28;20030;-67
2021/10/12 13:24:50;;;;;;;1.95;1.05;;;;;;;11.71;77.79;98969.56;4982911;28;20054;-68
2021/10/12 13:27:16;;;;;;;1.33;1.30;;;;;;;11.67;78.08;98965.31;4980440;28;20021;-68
2021/10/12 13:29:42;;;;;;;0.43;0.43;;;;;;;11.78;77.33;98965.94;4981451;28;20480;-69
2021/10/12 13:32:08;;;;;;;8.05;2.75;;;;;;;11.87;76.65;98965.81;4981906;28;20031;-68
2021/10/12 13:34:33;;;;;;;0.30;0.30;;;;;;;11.97;77.66;98967.31;4980758;28;20093;-69
2021/10/12 13:36:58;;;;;;;1.85;1.42;;;;;;;12.03;75.91;98969.78;4978306;28;20015;-68
2021/10/12 13:39:24;;;;;;;0.70;0.68;;;;;;;12.04;78.49;98968.94;4979225;28;20109;-75
2021/10/12 13:41:50;;;;;;;0.52;0.52;;;;;;;11.83;76.21;98965.00;4985292;28;20033;-71
2021/10/12 13:44:19;;;;;;;1.10;1.00;;;;;;;11.94;77.05;98967.41;4978173;28;20034;-71
2021/10/12 13:46:44;;;;;;;0.28;0.28;;;;;;;11.83;75.67;98956.38;4982444;28;20030;-71
2021/10/12 13:49:09;;;;;;;0.50;0.50;;;;;;;11.61;73.02;98952.47;4960201;28;20513;-71
2021/10/12 13:51:35;;;;;;;1.60;1.50;;;;;;;11.78;75.29;98963.34;4987330;28;20062;-71
2021/10/12 13:54:00;;;;;;;1.00;0.70;;;;;;;11.68;74.76;98954.03;4977108;28;20120;-71
2021/10/12 13:56:26;;;;;;;0.70;0.63;;;;;;;11.87;74.53;98950.22;4981737;28;20145;-70
2021/10/12 13:58:51;;;;;;;0.50;0.50;;;;;;;11.82;75.17;98949.47;4977026;28;20023;-71
2021/10/12 14:01:17;;;;;;;1.35;1.25;;;;;;;11.81;75.11;98945.13;4988905;28;20026;-71
2021/10/12 14:03:43;;;;;;;1.25;1.25;;;;;;;11.83;74.72;98943.38;4982822;28;20610;-71
2021/10/12 14:06:08;;;;;;;1.38;0.68;;;;;;;11.65;75.57;98948.91;4987840;28;20031;-71
2021/10/12 14:08:34;;;;;;;0.95;0.85;;;;;;;11.59;76.87;98945.53;4981279;28;20016;-71
2021/10/12 14:10:59;;;;;;;0.45;0.45;;;;;;;11.51;76.24;98950.03;4990904;28;20022;-71
2021/10/12 14:13:26;;;;;;;0.30;0.30;;;;;;;11.32;76.91;98956.47;4986405;28;20507;-71
2021/10/12 14:15:51;;;;;;;0.50;0.50;;;;;;;11.19;78.71;98950.63;4988772;28;20026;-71
2021/10/12 14:18:18;;;;;;;0.50;0.50;;;;;;;11.26;77.53;98947.03;4985436;28;20034;-71
2021/10/12 14:20:44;;;;;;;0.55;0.55;;;;;;;11.22;77.67;98949.72;4987821;28;20026;-71
2021/10/12 14:23:09;;;;;;;0.50;0.50;;;;;;;11.27;78.64;98937.53;4983908;28;20138;-71
2021/10/12 14:25:36;;;;;;;0.40;0.40;;;;;;;11.12;78.46;98937.78;4981763;28;20038;-71
2021/10/12 14:28:02;;;;;;;1.85;1.73;;;;;;;11.34;78.09;98941.72;4986362;28;20025;-71
2021/10/12 14:30:27;;;;;;;0.50;0.50;;;;;;;11.38;76.30;98935.59;4980830;28;20019;-71
2021/10/12 14:32:53;;;;;;;1.05;1.05;;;;;;;11.42;76.60;98941.59;4986365;28;20085;-71
2021/10/12 14:35:18;;;;;;;0.68;0.65;;;;;;;11.38;76.48;98930.41;4981498;28;20460;-71
2021/10/12 14:37:44;;;;;;;0.55;0.55;;;;;;;11.46;76.12;98928.53;4989322;28;20034;-71
2021/10/12 14:40:10;;;;;;;0.52;0.52;;;;;;;11.51;76.52;98926.69;4987163;28;20066;-71
2021/10/12 14:42:37;;;;;;;1.17;1.08;;;;;;;11.39;74.97;98926.06;4987819;28;20049;-71
2021/10/12 14:45:04;;;;;;;0.47;0.47;;;;;;;11.55;75.83;98922.28;4984309;28;20026;-71
2021/10/12 14:47:32;;;;;;;0.80;0.80;;;;;;;11.55;73.87;98917.94;4985968;28;20550;-71
2021/10/12 14:49:58;;;;;;;8.75;0.77;;;;;;;11.58;74.40;98917.88;4984665;28;20031;-71
2021/10/12 14:52:24;;;;;;;0.90;0.90;;;;;;;11.45;73.68;98918.16;4984270;28;20030;-71
2021/10/12 14:54:49;;;;;;;0.85;0.85;;;;;;;11.59;75.41;98914.41;4982389;28;20400;-71
2021/10/12 14:57:14;;;;;;;0.47;0.47;;;;;;;11.52;76.69;98918.03;4982685;28;20059;-71
2021/10/12 14:59:40;;;;;;;0.65;0.65;;;;;;;11.44;75.47;98919.91;4986621;28;20025;-71
2021/10/12 15:02:05;;;;;;;0.50;0.50;;;;;;;11.43;75.46;98913.00;4986453;28;20408;-71
2021/10/12 15:04:31;;;;;;;0.60;0.60;;;;;;;11.43;75.11;98917.34;4984547;28;20155;-71
2021/10/12 15:06:57;;;;;;;1.17;0.90;;;;;;;11.32;73.86;98913.22;4985542;28;20033;-71
2021/10/12 15:09:23;;;;;;;2.78;1.98;;;;;;;11.33;75.67;98907.13;4984519;28;20025;-71
2021/10/12 15:11:48;;;;;;;0.40;0.40;;;;;;;11.23;76.41;98910.78;4983152;28;20022;-71
2021/10/12 15:14:15;;;;;;;0.65;0.65;;;;;;;11.30;74.88;98908.91;4989534;28;20048;-71
2021/10/12 15:16:44;;;;;;;0.63;0.63;;;;;;;11.23;77.46;98900.41;4982814;28;20122;-71
2021/10/12 15:19:13;;;;;;;0.63;0.63;;;;;;;11.25;75.49;98908.16;4987099;28;20391;-71
2021/10/12 15:21:43;;;;;;;0.40;0.40;;;;;;;11.41;76.91;98899.22;4990052;28;20500;-71
2021/10/12 15:24:12;;;;;;;0.30;0.30;;;;;;;11.40;75.99;98897.47;4985154;28;20128;-71
2021/10/12 15:26:38;;;;;;;0.63;0.63;;;;;;;11.33;75.84;98901.09;4982746;28;20022;-71
2021/10/12 15:29:04;;;;;;;0.30;0.30;;;;;;;11.32;76.33;98896.81;4984146;28;20086;-71
2021/10/12 15:31:30;;;;;;;1.13;1.02;;;;;;;11.31;76.29;98898.53;4980184;28;20088;-71
2021/10/12 15:33:55;;;;;;;0.43;0.43;;;;;;;11.24;79.63;98906.44;4982027;28;20019;-71
2021/10/12 15:36:21;;;;;;;0.57;0.57;;;;;;;11.27;79.47;98906.41;4985514;28;20083;-71
2021/10/12 15:39:22;;;;;;;1.45;0.82;;;;;;;11.02;81.82;98905.97;4984953;28;20018;-72
2021/10/12 15:41:50;;;;;;;0.50;0.50;;;;;;;10.89;84.59;98894.13;4985192;28;20056;-71
2021/10/12 15:44:16;;;;;;;0.82;0.82;;;;;;;10.82;85.17;98893.38;4979413;28;20033;-71
2021/10/12 15:46:41;;;;;;;1.83;1.73;;;;;;;10.75;86.82;98892.63;4986912;28;20489;-71
2021/10/12 15:49:07;;;;;;;3.55;2.30;;;;;;;10.52;88.58;98900.75;4980018;28;20026;-72
2021/10/12 15:51:33;;;;;;;1.58;1.55;;;;;;;10.53;90.05;98901.63;4984579;28;20026;-72
2021/10/12 15:53:58;;;;;;;1.70;1.35;;;;;;;10.40;90.94;98895.78;4975171;28;20134;-72